Terminal Aerodrome Forecast
Issued by NWS

Home | Current Version | Previous Version | Graphics & Text | Print | Product List | Glossary On
Versions: 1 2 3 4 5 6 7 8 9 10 11 12 13 14 15 16 17 18 19 20
000
FTUS43 KIWX 261004 AAA
TAFSBN
TAF AMD
KSBN 261004Z 2610/2706 24003KT 5SM BR SCT150
     FM261200 25004KT P6SM BKN120
     FM262200 15009KT P6SM VCTS BKN100CB
     FM270200 15010KT 3SM -TSRA BR BKN015CB=

USA.gov is the U.S. government's official web portal to all federal, state and local government web resources and services.